Time;durP1;ratioP1;P1;durP2;ratioP2;P2;SDS_P1;SDS_P2;PMS_P1;PMS_P2;Temp;Humidity;BMP_temperature;BMP_pressure;BME280_temperature;BME280_humidity;BME280_pressure;Samples;Min_cycle;Max_cycle;Signal;HPM_P1;HPM_P2
2022/08/29 00:00:59;;;;;;;54.00;10.93;;;;;;;26.90;100.00;98069.47;4969678;28;20043;-55
2022/08/29 00:03:25;;;;;;;37.03;9.65;;;;;;;26.37;100.00;98065.28;4969034;28;20688;-54
2022/08/29 00:05:51;;;;;;;40.90;8.95;;;;;;;26.39;100.00;98068.66;4968605;28;20086;-53
2022/08/29 00:08:18;;;;;;;41.30;9.82;;;;;;;26.19;100.00;98068.06;4965921;28;20081;-52
2022/08/29 00:10:44;;;;;;;38.40;10.05;;;;;;;25.97;100.00;98064.94;4968593;28;20048;-56
2022/08/29 00:13:11;;;;;;;44.97;10.77;;;;;;;26.50;100.00;98068.34;4968307;28;20034;-54
2022/08/29 00:15:37;;;;;;;36.42;9.75;;;;;;;26.92;100.00;98059.44;4968096;28;20114;-54
2022/08/29 00:18:03;;;;;;;46.75;10.45;;;;;;;26.40;100.00;98055.13;4969328;28;20148;-53
2022/08/29 00:20:31;;;;;;;37.30;9.82;;;;;;;25.94;100.00;98063.44;4968874;28;20561;-53
2022/08/29 00:22:57;;;;;;;37.17;10.32;;;;;;;25.50;100.00;98058.13;4966405;28;20023;-52
2022/08/29 00:25:23;;;;;;;38.85;9.52;;;;;;;25.99;100.00;98056.78;4968629;28;20105;-53
2022/08/29 00:27:49;;;;;;;38.90;10.88;;;;;;;25.81;100.00;98057.66;4968083;28;20110;-53
2022/08/29 00:30:16;;;;;;;41.20;10.30;;;;;;;25.54;100.00;98067.50;4969936;28;20061;-53
2022/08/29 00:32:41;;;;;;;37.97;10.52;;;;;;;25.32;100.00;98063.50;4970517;28;20700;-53
2022/08/29 00:35:12;;;;;;;36.35;9.82;;;;;;;25.23;100.00;98056.38;4967929;28;20781;-55
2022/08/29 00:37:38;;;;;;;40.53;9.80;;;;;;;26.01;100.00;98057.44;4970986;28;20034;-53
2022/08/29 00:40:06;;;;;;;35.83;9.60;;;;;;;25.43;100.00;98062.41;4969924;28;20050;-53
2022/08/29 00:42:34;;;;;;;38.00;10.15;;;;;;;25.27;100.00;98057.78;4969006;28;20727;-53
2022/08/29 00:44:59;;;;;;;35.20;9.98;;;;;;;25.42;100.00;98066.09;4968627;28;20056;-52
2022/08/29 00:47:31;;;;;;;49.25;10.93;;;;;;;25.49;100.00;98064.44;4968644;28;20409;-55
2022/08/29 00:49:58;;;;;;;42.92;10.27;;;;;;;25.30;100.00;98064.66;4968598;28;20378;-53
2022/08/29 00:52:32;;;;;;;53.53;11.98;;;;;;;25.04;100.00;98068.06;4967998;28;20035;-53
2022/08/29 00:54:59;;;;;;;36.85;9.77;;;;;;;25.42;100.00;98068.75;4968061;28;20026;-55
2022/08/29 00:57:29;;;;;;;47.88;10.88;;;;;;;25.67;100.00;98071.59;4967509;28;20061;-54
2022/08/29 00:59:55;;;;;;;48.95;11.23;;;;;;;25.46;100.00;98066.63;4966844;28;20058;-54
2022/08/29 01:02:20;;;;;;;42.35;10.52;;;;;;;25.61;100.00;98072.22;4966556;28;20046;-54
2022/08/29 01:04:46;;;;;;;43.83;10.77;;;;;;;25.47;100.00;98073.63;4969642;28;20125;-53
2022/08/29 01:07:12;;;;;;;44.00;11.48;;;;;;;25.57;100.00;98074.38;4968003;28;20037;-53
2022/08/29 01:09:40;;;;;;;45.22;10.48;;;;;;;25.67;100.00;98071.59;4967860;28;20031;-53
2022/08/29 01:12:15;;;;;;;39.88;10.60;;;;;;;25.83;100.00;98077.03;4965055;28;20038;-53
2022/08/29 01:15:03;;;;;;;50.25;11.13;;;;;;;25.61;100.00;98078.41;4970683;28;20026;-55
2022/08/29 01:17:44;;;;;;;37.97;10.55;;;;;;;25.34;100.00;98080.19;4966720;28;20035;-53
2022/08/29 01:20:14;;;;;;;37.65;10.75;;;;;;;25.15;100.00;98081.19;4966964;28;20035;-53
2022/08/29 01:23:21;;;;;;;39.90;10.38;;;;;;;25.99;100.00;98078.16;4967737;28;20641;-53
2022/08/29 01:25:50;;;;;;;47.03;11.07;;;;;;;25.10;100.00;98083.47;4968495;28;20031;-56
2022/08/29 01:28:30;;;;;;;39.97;10.13;;;;;;;25.24;100.00;98089.31;4966718;28;20034;-53
2022/08/29 01:31:19;;;;;;;55.67;11.88;;;;;;;25.38;100.00;98078.06;4967216;28;20500;-53
2022/08/29 01:33:51;;;;;;;48.28;11.18;;;;;;;25.87;100.00;98091.75;4965932;28;20329;-52
2022/08/29 01:36:49;;;;;;;39.47;10.02;;;;;;;26.23;100.00;98085.44;4966585;28;20049;-53
2022/08/29 01:39:16;;;;;;;37.03;10.05;;;;;;;23.46;100.00;98084.88;4963915;28;20046;-52
2022/08/29 01:41:42;;;;;;;38.20;9.85;;;;;;;23.48;100.00;98080.25;4967779;28;20551;-53
2022/08/29 01:44:11;;;;;;;34.15;9.23;;;;;;;24.16;100.00;98078.41;4965387;28;20022;-53
2022/08/29 01:46:37;;;;;;;36.60;10.20;;;;;;;22.71;100.00;98081.91;4968501;28;20081;-52
2022/08/29 01:49:06;;;;;;;41.45;9.13;;;;;;;24.44;100.00;98082.78;4971419;28;20021;-53
2022/08/29 01:51:32;;;;;;;33.08;9.75;;;;;;;23.60;100.00;98088.94;4965998;28;20142;-52
2022/08/29 01:53:58;;;;;;;42.92;10.77;;;;;;;23.22;100.00;98085.34;4968179;28;20129;-53
2022/08/29 01:56:29;;;;;;;41.60;9.98;;;;;;;24.09;100.00;98082.66;4967023;28;20133;-53
2022/08/29 01:58:55;;;;;;;50.53;10.77;;;;;;;23.50;100.00;98080.13;4966729;28;20031;-52
2022/08/29 02:01:24;;;;;;;42.47;10.27;;;;;;;23.38;100.00;98084.78;4966647;28;20046;-52
2022/08/29 02:03:50;;;;;;;46.08;10.48;;;;;;;22.46;100.00;98079.75;4967440;28;20030;-54
2022/08/29 02:06:16;;;;;;;53.10;11.43;;;;;;;22.78;100.00;98087.53;4966082;28;20128;-52
2022/08/29 02:08:43;;;;;;;40.47;10.57;;;;;;;22.11;100.00;98084.53;4968132;28;20045;-54
2022/08/29 02:11:10;;;;;;;42.03;10.90;;;;;;;22.47;100.00;98086.75;4967141;28;20236;-52
2022/08/29 02:13:56;;;;;;;38.25;10.23;;;;;;;23.22;100.00;98090.66;4967225;28;20408;-52
2022/08/29 02:16:24;;;;;;;46.22;11.20;;;;;;;23.07;100.00;98084.09;4967661;28;20109;-52
2022/08/29 02:18:50;;;;;;;38.35;11.35;;;;;;;21.81;100.00;98081.88;4965789;28;20033;-52
2022/08/29 02:21:18;;;;;;;50.03;12.00;;;;;;;21.95;100.00;98085.00;4966168;28;20039;-52
2022/08/29 02:23:45;;;;;;;43.83;11.43;;;;;;;21.99;100.00;98074.97;4969944;28;20069;-52
2022/08/29 02:26:11;;;;;;;33.03;9.75;;;;;;;21.80;100.00;98073.06;4971653;28;20061;-53
2022/08/29 02:28:37;;;;;;;37.88;10.35;;;;;;;22.24;100.00;98072.81;4973707;28;20025;-52
2022/08/29 02:31:04;;;;;;;47.17;10.98;;;;;;;22.35;100.00;98075.41;4969653;28;20039;-52
2022/08/29 02:33:31;;;;;;;47.55;11.57;;;;;;;22.11;100.00;98081.88;4972204;28;20658;-52
2022/08/29 02:35:56;;;;;;;42.40;10.82;;;;;;;22.11;100.00;98078.34;4972396;28;20045;-52
2022/08/29 02:38:22;;;;;;;44.95;10.90;;;;;;;21.80;100.00;98083.69;4972124;28;20030;-52
2022/08/29 02:40:48;;;;;;;52.65;11.93;;;;;;;20.59;100.00;98068.88;4969219;28;20105;-52
2022/08/29 02:43:16;;;;;;;52.40;11.55;;;;;;;20.39;100.00;98070.47;4969211;28;20471;-53
2022/08/29 02:45:42;;;;;;;56.97;11.95;;;;;;;20.50;100.00;98068.78;4971670;28;20050;-53
2022/08/29 02:48:10;;;;;;;51.72;11.27;;;;;;;20.87;100.00;98071.13;4969966;28;20026;-52
2022/08/29 02:50:38;;;;;;;50.85;11.73;;;;;;;20.97;100.00;98067.59;4970523;28;20633;-52
2022/08/29 02:53:04;;;;;;;42.30;9.82;;;;;;;21.68;100.00;98076.75;4970511;28;20034;-53
2022/08/29 02:55:30;;;;;;;55.60;11.05;;;;;;;20.85;100.00;98068.59;4969938;28;20038;-52
2022/08/29 02:57:57;;;;;;;47.08;11.10;;;;;;;20.65;100.00;98072.03;4971353;28;20759;-52
2022/08/29 03:00:25;;;;;;;49.05;10.43;;;;;;;21.21;100.00;98073.63;4967690;28;20045;-51
2022/08/29 03:02:53;;;;;;;53.55;10.63;;;;;;;21.59;100.00;98081.03;4969859;28;20019;-53
2022/08/29 03:05:21;;;;;;;43.65;10.15;;;;;;;20.86;100.00;98083.56;4984114;28;20038;-51
2022/08/29 03:07:47;;;;;;;53.47;11.73;;;;;;;21.05;100.00;98088.16;4967947;28;20042;-52
2022/08/29 03:10:12;;;;;;;39.67;9.95;;;;;;;21.07;100.00;98082.75;4969738;28;20027;-51
2022/08/29 03:12:39;;;;;;;33.00;9.80;;;;;;;21.26;100.00;98090.00;4970124;28;20041;-53
2022/08/29 03:15:06;;;;;;;32.17;10.73;;;;;;;20.41;100.00;98086.25;4970291;28;20548;-52
2022/08/29 03:17:32;;;;;;;34.70;9.95;;;;;;;20.15;100.00;98081.22;4970890;28;20046;-51
2022/08/29 03:19:58;;;;;;;47.45;11.60;;;;;;;19.70;100.00;98096.22;4969726;28;20799;-52
2022/08/29 03:22:25;;;;;;;39.17;10.20;;;;;;;20.64;100.00;98091.53;4970317;28;20511;-54
2022/08/29 03:24:50;;;;;;;40.53;10.15;;;;;;;20.10;100.00;98087.84;4970233;28;20070;-53
2022/08/29 03:27:17;;;;;;;41.47;10.45;;;;;;;20.20;100.00;98104.72;4969871;28;20039;-51
2022/08/29 03:29:42;;;;;;;39.03;9.77;;;;;;;21.32;100.00;98098.31;4970078;28;20031;-51
2022/08/29 03:32:07;;;;;;;48.78;10.55;;;;;;;20.89;100.00;98103.66;4970513;28;20031;-51
2022/08/29 03:34:33;;;;;;;34.25;10.30;;;;;;;20.69;100.00;98110.56;4969355;28;20697;-52
2022/08/29 03:36:59;;;;;;;47.47;11.10;;;;;;;20.73;100.00;98106.69;4969083;28;20381;-52
2022/08/29 03:39:25;;;;;;;31.90;9.65;;;;;;;20.49;100.00;98102.38;4971740;28;20026;-51
2022/08/29 03:41:50;;;;;;;43.38;11.20;;;;;;;20.01;100.00;98106.13;4967906;28;20043;-52
2022/08/29 03:44:16;;;;;;;41.88;10.60;;;;;;;20.53;100.00;98098.53;4968442;28;20117;-55
2022/08/29 03:46:41;;;;;;;34.65;10.18;;;;;;;20.86;100.00;98099.44;4969632;28;20531;-51
2022/08/29 03:49:07;;;;;;;47.50;11.98;;;;;;;20.33;100.00;98099.28;4970026;28;20022;-52
2022/08/29 03:51:38;;;;;;;41.22;10.90;;;;;;;20.35;100.00;98102.66;4970759;28;20146;-54
2022/08/29 03:54:04;;;;;;;41.28;11.52;;;;;;;20.09;100.00;98100.25;4969277;28;20105;-51
2022/08/29 03:56:31;;;;;;;37.33;10.93;;;;;;;20.92;100.00;98104.25;4970177;28;20047;-51
2022/08/29 03:58:57;;;;;;;41.28;11.30;;;;;;;20.40;100.00;98100.47;4969808;28;20079;-51
2022/08/29 04:01:25;;;;;;;46.05;11.50;;;;;;;20.31;100.00;98102.06;4970474;28;20125;-53
2022/08/29 04:03:51;;;;;;;43.35;11.00;;;;;;;20.36;100.00;98109.63;4969729;28;20027;-54
2022/08/29 04:06:18;;;;;;;40.97;10.70;;;;;;;20.66;100.00;98106.38;4968307;28;20046;-51
2022/08/29 04:08:46;;;;;;;48.70;11.88;;;;;;;20.21;100.00;98096.63;4972281;28;20504;-51
2022/08/29 04:11:13;;;;;;;42.05;11.60;;;;;;;20.35;100.00;98113.25;4969928;28;20094;-53
2022/08/29 04:13:39;;;;;;;42.38;10.40;;;;;;;20.38;100.00;98113.00;4968909;28;20691;-52
2022/08/29 04:16:15;;;;;;;43.45;11.38;;;;;;;20.10;100.00;98109.88;4977632;28;20046;-52
2022/08/29 04:18:42;;;;;;;40.88;11.25;;;;;;;20.47;100.00;98106.94;4969857;28;20026;-51
2022/08/29 04:21:08;;;;;;;43.88;11.18;;;;;;;20.55;100.00;98109.84;4968265;28;20066;-52
2022/08/29 04:23:35;;;;;;;41.35;11.32;;;;;;;20.38;100.00;98113.00;4970191;28;20704;-51
2022/08/29 04:26:01;;;;;;;38.80;10.38;;;;;;;20.23;100.00;98101.81;4970004;28;20049;-52
2022/08/29 04:28:26;;;;;;;36.10;10.13;;;;;;;20.54;100.00;98113.44;4967950;28;20022;-53
2022/08/29 04:30:52;;;;;;;47.30;10.27;;;;;;;21.40;100.00;98116.22;4968628;28;20125;-53
2022/08/29 04:33:20;;;;;;;38.13;10.00;;;;;;;20.79;100.00;98106.22;4970078;28;20209;-54
2022/08/29 04:35:45;;;;;;;41.08;8.95;;;;;;;21.87;100.00;98110.53;4966748;28;20039;-54
2022/08/29 04:38:11;;;;;;;39.33;10.10;;;;;;;21.29;100.00;98124.25;4968974;28;20049;-55
2022/08/29 04:40:39;;;;;;;45.50;10.52;;;;;;;20.30;100.00;98120.72;4966490;28;20038;-51
2022/08/29 04:43:05;;;;;;;37.15;10.13;;;;;;;19.88;100.00;98125.75;4969180;28;20137;-52
2022/08/29 04:45:32;;;;;;;39.15;9.32;;;;;;;21.07;100.00;98123.34;4968405;28;20096;-53
2022/08/29 04:47:58;;;;;;;44.20;10.80;;;;;;;19.79;100.00;98122.84;4968699;28;20635;-51
2022/08/29 04:50:23;;;;;;;41.10;11.25;;;;;;;19.98;100.00;98137.31;4969236;28;20488;-53
2022/08/29 04:52:51;;;;;;;48.08;11.13;;;;;;;20.29;100.00;98133.13;4968281;28;20106;-52
2022/08/29 04:55:18;;;;;;;39.88;10.93;;;;;;;20.03;100.00;98140.44;4968916;28;20082;-51
2022/08/29 04:57:43;;;;;;;37.60;10.80;;;;;;;20.37;100.00;98137.81;4968443;28;20542;-52
2022/08/29 05:00:13;;;;;;;43.67;10.95;;;;;;;20.22;100.00;98134.56;4969323;28;20725;-52
2022/08/29 05:02:41;;;;;;;35.13;8.77;;;;;;;20.79;100.00;98144.16;4968459;28;20100;-53
2022/08/29 05:05:08;;;;;;;50.17;12.02;;;;;;;20.30;100.00;98149.84;4967942;28;20046;-51
2022/08/29 05:07:34;;;;;;;41.35;10.23;;;;;;;20.52;100.00;98146.34;4967499;28;20100;-54
2022/08/29 05:10:05;;;;;;;47.72;11.50;;;;;;;20.54;100.00;98155.84;4968176;28;20026;-52
2022/08/29 05:12:32;;;;;;;37.45;9.55;;;;;;;21.61;100.00;98153.41;4968331;28;20053;-53
2022/08/29 05:14:57;;;;;;;40.75;10.52;;;;;;;21.25;100.00;98155.47;4967223;28;20089;-52
2022/08/29 05:17:23;;;;;;;43.78;13.13;;;;;;;21.21;100.00;98159.38;4975577;28;20038;-52
2022/08/29 05:19:49;;;;;;;49.08;14.35;;;;;;;21.65;100.00;98167.25;4970946;28;20114;-52
2022/08/29 05:22:19;;;;;;;46.38;11.65;;;;;;;21.78;100.00;98161.75;4965168;28;20070;-52
2022/08/29 05:24:46;;;;;;;40.20;10.27;;;;;;;21.36;100.00;98168.69;4967509;28;20098;-54
2022/08/29 05:27:20;;;;;;;44.60;10.65;;;;;;;20.91;100.00;98163.53;4968569;28;20049;-52
2022/08/29 05:29:48;;;;;;;40.85;11.02;;;;;;;21.48;100.00;98166.03;4966034;28;20528;-53
2022/08/29 05:32:14;;;;;;;45.53;10.90;;;;;;;22.48;100.00;98160.22;4966895;28;20993;-52
2022/08/29 05:34:41;;;;;;;31.98;9.20;;;;;;;23.44;100.00;98163.22;4967515;28;20042;-53
2022/08/29 05:37:13;;;;;;;35.25;8.57;;;;;;;24.09;100.00;98167.91;4967183;28;20039;-53
2022/08/29 05:39:40;;;;;;;32.67;8.05;;;;;;;25.24;100.00;98174.72;4969389;28;20720;-53
2022/08/29 05:42:06;;;;;;;32.65;8.05;;;;;;;26.48;100.00;98172.81;4966853;28;20034;-53
2022/08/29 05:44:33;;;;;;;32.47;8.20;;;;;;;26.68;100.00;98169.94;4969101;28;20085;-52
2022/08/29 05:46:59;;;;;;;29.70;7.40;;;;;;;28.18;100.00;98174.31;4968942;28;20039;-54
2022/08/29 05:49:26;;;;;;;35.08;8.05;;;;;;;27.67;100.00;98176.34;4966480;28;20026;-53
2022/08/29 05:51:53;;;;;;;30.05;7.20;;;;;;;27.76;100.00;98174.50;4968056;28;20666;-53
2022/08/29 05:54:18;;;;;;;29.35;7.40;;;;;;;28.03;100.00;98170.63;4965357;28;20026;-53
2022/08/29 05:56:44;;;;;;;28.52;6.97;;;;;;;27.78;98.98;98178.69;4967187;28;20386;-54
2022/08/29 05:59:10;;;;;;;27.73;6.78;;;;;;;26.77;100.00;98176.16;4969246;28;20022;-55
2022/08/29 06:01:36;;;;;;;36.90;7.75;;;;;;;27.76;100.00;98169.97;4969657;28;20039;-54
2022/08/29 06:04:02;;;;;;;32.20;7.25;;;;;;;27.52;98.39;98172.66;4971837;28;20037;-54
2022/08/29 06:06:28;;;;;;;27.08;7.22;;;;;;;27.59;100.00;98174.50;4972160;28;20041;-54
2022/08/29 06:08:55;;;;;;;26.95;7.10;;;;;;;28.13;96.21;98167.78;4971430;28;20037;-54
2022/08/29 06:11:24;;;;;;;27.27;6.95;;;;;;;27.76;95.49;98169.97;4970914;28;20034;-54
2022/08/29 06:13:50;;;;;;;32.90;7.07;;;;;;;27.86;91.63;98180.50;4972601;28;20117;-55
2022/08/29 06:16:18;;;;;;;19.58;5.75;;;;;;;27.83;94.64;98168.31;4972249;28;20054;-53
2022/08/29 06:18:44;;;;;;;32.47;6.95;;;;;;;28.02;89.71;98175.16;4970935;28;20094;-55
2022/08/29 06:21:10;;;;;;;26.35;6.05;;;;;;;28.55;86.21;98166.69;4973496;28;20038;-54
2022/08/29 06:23:37;;;;;;;30.90;6.90;;;;;;;27.83;89.06;98170.97;4972336;28;20122;-54
2022/08/29 06:26:04;;;;;;;26.13;6.32;;;;;;;29.23;82.76;98169.75;4970577;28;20046;-54
2022/08/29 06:28:31;;;;;;;25.85;6.50;;;;;;;27.94;83.38;98171.66;4970291;28;20045;-54
2022/08/29 06:31:25;;;;;;;32.80;6.95;;;;;;;27.90;83.74;98171.16;4971229;28;20034;-55
2022/08/29 06:33:52;;;;;;;33.78;7.38;;;;;;;30.59;74.48;98178.81;4970284;28;20037;-55
2022/08/29 06:36:18;;;;;;;26.85;6.15;;;;;;;30.35;74.01;98173.50;4970675;28;20077;-54
2022/08/29 06:38:44;;;;;;;27.65;6.32;;;;;;;28.90;75.95;98173.41;4970339;28;20066;-54
2022/08/29 06:41:12;;;;;;;25.55;6.65;;;;;;;29.94;73.34;98175.75;4970336;28;20042;-55
2022/08/29 06:43:39;;;;;;;26.95;6.32;;;;;;;29.27;73.56;98182.63;4970337;28;20041;-54
2022/08/29 06:46:05;;;;;;;27.35;6.70;;;;;;;32.64;65.42;98187.25;4972656;28;20046;-54
2022/08/29 06:48:30;;;;;;;28.02;6.55;;;;;;;32.75;63.26;98191.22;4969981;28;20027;-59
2022/08/29 06:50:56;;;;;;;33.53;7.45;;;;;;;34.26;54.29;98187.41;4970276;28;20069;-57
2022/08/29 06:53:22;;;;;;;25.25;6.50;;;;;;;33.42;53.33;98191.50;4970515;28;20772;-55
2022/08/29 06:55:48;;;;;;;23.95;5.72;;;;;;;31.80;61.96;98192.59;4970459;28;20046;-55
2022/08/29 06:58:13;;;;;;;23.27;6.07;;;;;;;33.20;56.64;98180.81;4971462;28;20026;-56
2022/08/29 07:00:40;;;;;;;22.95;5.55;;;;;;;35.24;50.85;98180.22;4970256;28;20043;-55
2022/08/29 07:03:06;;;;;;;28.55;6.60;;;;;;;32.85;54.52;98188.16;4969196;28;20382;-54
2022/08/29 07:05:31;;;;;;;19.05;5.38;;;;;;;33.25;52.94;98185.63;4972293;28;20534;-55
2022/08/29 07:07:56;;;;;;;22.00;5.93;;;;;;;33.87;50.48;98186.34;4973627;28;20042;-55
2022/08/29 07:10:22;;;;;;;17.77;5.30;;;;;;;34.68;47.68;98190.63;4973885;28;20137;-54
2022/08/29 07:12:47;;;;;;;18.13;5.32;;;;;;;35.60;46.74;98192.28;4973267;28;20097;-54
2022/08/29 07:15:12;;;;;;;20.90;5.63;;;;;;;34.71;45.37;98198.34;4970840;28;20038;-56
2022/08/29 07:17:38;;;;;;;19.30;4.70;;;;;;;33.53;48.28;98204.41;4971366;28;20531;-54
2022/08/29 07:20:05;;;;;;;19.85;5.25;;;;;;;32.56;50.02;98200.03;4969874;28;20031;-56
2022/08/29 07:22:33;;;;;;;14.95;4.70;;;;;;;35.35;45.26;98194.94;4972680;28;20030;-55
2022/08/29 07:24:58;;;;;;;18.17;4.97;;;;;;;36.63;41.10;98202.69;4978928;28;20034;-56
2022/08/29 07:27:24;;;;;;;23.85;5.43;;;;;;;39.15;38.16;98200.78;4971858;28;20092;-55
2022/08/29 07:29:49;;;;;;;14.88;4.82;;;;;;;34.81;43.77;98191.63;4969467;28;20030;-57
2022/08/29 07:32:15;;;;;;;16.38;5.03;;;;;;;36.58;41.58;98194.38;4971884;28;20792;-55
2022/08/29 07:34:40;;;;;;;17.08;5.07;;;;;;;33.82;43.77;98207.81;4970783;28;20106;-57
2022/08/29 07:37:05;;;;;;;16.25;4.60;;;;;;;37.16;40.23;98197.69;4986183;28;20049;-56
2022/08/29 07:39:31;;;;;;;17.08;5.28;;;;;;;34.83;44.84;98203.09;4971673;28;20398;-58
2022/08/29 07:42:00;;;;;;;15.60;5.07;;;;;;;35.69;41.99;98201.84;4972545;28;20528;-58
2022/08/29 07:44:25;;;;;;;19.33;5.32;;;;;;;36.49;41.68;98206.59;4972657;28;20057;-57
2022/08/29 07:46:55;;;;;;;16.20;4.30;;;;;;;37.06;40.46;98203.66;4970292;28;20121;-58
2022/08/29 07:49:22;;;;;;;16.67;4.82;;;;;;;36.08;41.29;98194.41;4972945;28;20054;-55
2022/08/29 07:51:49;;;;;;;16.90;4.80;;;;;;;38.02;38.11;98209.19;4970182;28;20035;-58
2022/08/29 07:54:15;;;;;;;15.73;4.70;;;;;;;37.22;39.80;98207.66;4971453;28;20068;-57
2022/08/29 07:56:41;;;;;;;20.30;5.15;;;;;;;34.65;41.81;98206.44;4971676;28;20046;-57
2022/08/29 07:59:07;;;;;;;15.63;4.70;;;;;;;37.05;40.29;98210.97;4972533;28;20031;-58
2022/08/29 08:01:34;;;;;;;16.48;5.00;;;;;;;37.70;38.06;98204.06;4972301;28;20039;-56
2022/08/29 08:04:00;;;;;;;13.60;4.55;;;;;;;40.37;33.57;98206.75;4970789;28;20124;-56
2022/08/29 08:06:26;;;;;;;12.57;4.00;;;;;;;38.23;36.95;98204.25;4972586;28;20770;-56
2022/08/29 08:08:52;;;;;;;12.77;4.35;;;;;;;37.42;36.77;98215.53;4971960;28;20114;-56
2022/08/29 08:11:20;;;;;;;19.00;4.97;;;;;;;37.13;37.28;98211.72;4970724;28;20054;-56
2022/08/29 08:13:46;;;;;;;16.77;4.85;;;;;;;37.12;36.86;98210.06;4972066;28;20035;-53
2022/08/29 08:16:15;;;;;;;14.57;4.57;;;;;;;39.81;35.50;98209.38;4970072;28;20069;-53
2022/08/29 08:18:42;;;;;;;15.32;4.72;;;;;;;36.31;38.55;98214.72;4969938;28;20065;-53
2022/08/29 08:21:09;;;;;;;14.52;4.63;;;;;;;39.32;34.13;98211.78;4967710;28;20031;-57
2022/08/29 08:23:35;;;;;;;14.23;4.03;;;;;;;39.18;34.35;98205.78;4971356;28;20766;-54
2022/08/29 08:26:00;;;;;;;14.77;4.70;;;;;;;38.32;37.48;98213.72;4969484;28;20481;-56
2022/08/29 08:28:27;;;;;;;15.70;4.50;;;;;;;35.24;41.22;98200.03;4972493;28;20731;-55
2022/08/29 08:30:53;;;;;;;15.25;4.68;;;;;;;37.75;38.00;98209.63;4971048;28;20034;-56
2022/08/29 08:33:18;;;;;;;15.60;4.53;;;;;;;37.88;37.11;98213.19;4970829;28;20130;-53
2022/08/29 08:35:44;;;;;;;14.95;4.55;;;;;;;37.40;37.74;98212.22;4969242;28;20039;-55
2022/08/29 08:38:09;;;;;;;16.30;4.35;;;;;;;38.17;35.30;98206.84;4969649;28;20125;-53
2022/08/29 08:40:42;;;;;;;13.82;4.47;;;;;;;39.76;33.55;98206.59;4971817;28;20565;-54
2022/08/29 08:43:11;;;;;;;15.27;4.85;;;;;;;38.40;35.52;98216.09;4967633;28;20054;-53
2022/08/29 08:45:42;;;;;;;12.32;4.00;;;;;;;39.90;34.24;98212.56;4978410;28;20038;-53
2022/08/29 08:48:23;;;;;;;11.70;4.25;;;;;;;38.29;35.30;98215.03;4970152;28;20046;-54
2022/08/29 08:50:55;;;;;;;16.00;4.95;;;;;;;37.24;35.32;98213.72;4969330;28;20047;-53
2022/08/29 08:53:36;;;;;;;13.02;4.40;;;;;;;37.44;34.82;98213.41;4970202;28;20460;-53
2022/08/29 08:56:10;;;;;;;13.57;4.17;;;;;;;37.74;36.01;98207.16;4968558;28;20070;-54
2022/08/29 08:58:41;;;;;;;15.40;4.10;;;;;;;39.42;33.79;98209.22;4970706;28;20026;-54
2022/08/29 09:01:26;;;;;;;14.55;4.85;;;;;;;37.69;35.63;98210.56;4968891;28;20736;-53
2022/08/29 09:04:24;;;;;;;14.15;4.30;;;;;;;37.57;35.80;98207.78;4970863;28;20034;-56
2022/08/29 09:06:56;;;;;;;14.05;4.53;;;;;;;37.76;34.90;98200.41;4971640;28;20046;-54
2022/08/29 09:09:40;;;;;;;13.48;4.68;;;;;;;38.90;32.66;98204.66;4968813;28;20030;-54
2022/08/29 09:12:12;;;;;;;13.25;4.45;;;;;;;36.62;35.40;98203.72;4969844;28;20046;-53
2022/08/29 09:14:56;;;;;;;14.02;4.32;;;;;;;37.47;34.06;98195.81;4970335;28;20146;-53
2022/08/29 09:17:29;;;;;;;14.60;4.45;;;;;;;39.26;32.60;98207.28;4969559;28;20713;-54
2022/08/29 09:19:56;;;;;;;12.40;4.22;;;;;;;36.78;34.95;98207.78;4971163;28;20030;-54
2022/08/29 09:22:26;;;;;;;13.77;4.35;;;;;;;39.73;32.03;98219.91;4969246;28;20081;-59
2022/08/29 09:24:54;;;;;;;10.90;3.90;;;;;;;37.94;33.38;98204.09;4968931;28;20037;-57
2022/08/29 09:27:23;;;;;;;13.88;4.00;;;;;;;38.72;33.32;98207.56;4970186;28;20051;-56
2022/08/29 09:29:55;;;;;;;13.57;4.22;;;;;;;39.09;32.15;98208.06;4972090;28;20057;-54
2022/08/29 09:32:21;;;;;;;11.52;3.97;;;;;;;38.27;33.52;98206.28;4970131;28;20043;-55
2022/08/29 09:34:47;;;;;;;17.27;4.95;;;;;;;35.16;37.59;98202.13;4969740;28;20101;-56
2022/08/29 09:37:35;;;;;;;10.27;3.78;;;;;;;38.87;34.11;98201.59;4969406;28;20157;-53
2022/08/29 09:40:12;;;;;;;15.07;4.35;;;;;;;37.47;34.07;98202.06;4970407;28;20031;-54
2022/08/29 09:42:46;;;;;;;18.60;4.75;;;;;;;38.13;33.10;98207.56;4970357;28;20097;-55
2022/08/29 09:45:23;;;;;;;14.45;4.40;;;;;;;39.18;32.48;98205.78;4969077;28;20034;-54
2022/08/29 09:48:06;;;;;;;14.30;4.45;;;;;;;39.78;32.61;98204.44;4969420;28;20034;-53
2022/08/29 09:50:31;;;;;;;12.10;4.35;;;;;;;37.65;35.08;98203.94;4969623;28;20035;-54
2022/08/29 09:52:59;;;;;;;13.70;4.20;;;;;;;37.80;35.73;98198.03;4968435;28;20043;-54
2022/08/29 09:55:43;;;;;;;14.80;4.40;;;;;;;37.45;37.06;98208.81;4969208;28;20031;-54
2022/08/29 09:58:14;;;;;;;16.15;4.30;;;;;;;39.32;33.28;98198.97;4970898;28;20598;-54
2022/08/29 10:00:44;;;;;;;15.68;4.38;;;;;;;38.94;33.49;98203.09;4969359;28;20094;-54
2022/08/29 10:03:20;;;;;;;17.45;4.85;;;;;;;36.14;37.22;98198.13;4971361;28;20029;-53
2022/08/29 10:05:46;;;;;;;14.55;4.70;;;;;;;39.03;34.05;98191.84;4968302;28;20035;-55
2022/08/29 10:08:35;;;;;;;18.90;5.22;;;;;;;36.49;36.20;98193.03;4969492;28;20042;-54
2022/08/29 10:11:05;;;;;;;18.33;5.25;;;;;;;38.55;34.15;98181.03;4967447;28;20499;-55
2022/08/29 10:13:50;;;;;;;15.57;4.95;;;;;;;38.66;33.86;98186.72;4971119;28;20476;-56
2022/08/29 10:16:25;;;;;;;13.75;4.78;;;;;;;35.02;38.63;98182.41;4968880;28;20065;-57
2022/08/29 10:18:57;;;;;;;15.65;4.78;;;;;;;38.13;35.61;98173.00;4969879;28;20125;-54
2022/08/29 10:21:38;;;;;;;13.52;4.25;;;;;;;39.08;35.01;98184.59;4969467;28;20058;-56
2022/08/29 10:24:25;;;;;;;16.00;4.63;;;;;;;36.36;39.23;98187.72;4967306;28;20727;-56
2022/08/29 10:27:03;;;;;;;16.75;4.53;;;;;;;34.83;42.36;98189.53;4967805;28;20104;-54
2022/08/29 10:29:28;;;;;;;13.52;4.45;;;;;;;35.18;41.90;98186.47;4969690;28;20027;-53
2022/08/29 10:31:57;;;;;;;18.70;5.00;;;;;;;35.08;42.60;98190.47;4966588;28;20480;-53
2022/08/29 10:34:55;;;;;;;17.52;4.78;;;;;;;34.50;43.86;98183.19;4969340;28;20409;-55
2022/08/29 10:37:39;;;;;;;19.45;5.13;;;;;;;35.86;42.13;98194.84;4969698;28;20057;-54
2022/08/29 10:40:14;;;;;;;18.58;4.93;;;;;;;36.97;39.29;98183.28;4967731;28;20471;-57
2022/08/29 10:42:42;;;;;;;20.98;5.18;;;;;;;37.23;37.08;98195.72;4970316;28;20030;-56
2022/08/29 10:45:24;;;;;;;17.40;4.80;;;;;;;36.69;38.76;98189.25;4973262;28;20041;-58
2022/08/29 10:48:09;;;;;;;17.45;4.72;;;;;;;36.42;39.01;98189.53;4973825;28;20030;-56
2022/08/29 10:51:03;;;;;;;17.65;4.95;;;;;;;33.33;40.87;98187.31;4974047;28;20034;-58
2022/08/29 10:53:37;;;;;;;23.52;5.65;;;;;;;34.86;39.06;98189.13;4974133;28;20581;-54
2022/08/29 10:56:17;;;;;;;17.60;4.78;;;;;;;33.59;42.33;98181.94;4974820;28;20101;-56
2022/08/29 10:59:17;;;;;;;15.70;4.50;;;;;;;34.83;41.50;98176.84;4973912;28;20037;-55
2022/08/29 11:02:07;;;;;;;19.05;5.03;;;;;;;35.42;38.36;98180.31;4971826;28;20049;-56
2022/08/29 11:04:49;;;;;;;20.83;4.93;;;;;;;35.05;39.22;98182.78;4972975;28;20026;-55
2022/08/29 11:07:26;;;;;;;19.25;4.85;;;;;;;36.03;38.82;98178.00;4973096;28;20081;-54
2022/08/29 11:09:56;;;;;;;17.55;4.75;;;;;;;36.16;38.37;98174.31;4972534;28;20096;-54
2022/08/29 11:12:45;;;;;;;22.20;5.38;;;;;;;36.93;37.47;98174.75;4971152;28;20096;-55
2022/08/29 11:15:20;;;;;;;18.42;4.80;;;;;;;37.80;36.96;98179.00;4973871;28;20452;-54
2022/08/29 11:17:57;;;;;;;21.75;5.30;;;;;;;35.66;38.88;98180.53;4971245;28;20039;-54
2022/08/29 11:20:31;;;;;;;19.50;5.22;;;;;;;35.93;40.14;98180.38;4980776;28;20177;-56
2022/08/29 11:23:11;;;;;;;16.63;4.53;;;;;;;35.10;41.25;98172.13;4972906;28;20097;-56
2022/08/29 11:25:40;;;;;;;20.75;5.38;;;;;;;35.14;41.90;98178.78;4972551;28;20053;-54
2022/08/29 11:28:21;;;;;;;14.70;4.53;;;;;;;33.85;43.26;98172.19;4971922;28;20062;-58